sensor_id;sensor_type;location;lat;lon;timestamp;temperature;humidity
59309;DHT22;48433;53.016;-2.260;2023-09-12T00:01:13;20.00;99.90
59309;DHT22;48433;53.016;-2.260;2023-09-12T00:03:41;20.00;99.90
59309;DHT22;48433;53.016;-2.260;2023-09-12T00:06:08;20.00;99.90
59309;DHT22;48433;53.016;-2.260;2023-09-12T00:08:36;20.00;99.90
59309;DHT22;48433;53.016;-2.260;2023-09-12T00:11:08;20.00;99.90
59309;DHT22;48433;53.016;-2.260;2023-09-12T00:13:40;20.00;99.90
59309;DHT22;48433;53.016;-2.260;2023-09-12T00:16:08;20.00;99.90
59309;DHT22;48433;53.016;-2.260;2023-09-12T00:18:39;20.00;99.90
59309;DHT22;48433;53.016;-2.260;2023-09-12T00:21:07;20.00;99.90
59309;DHT22;48433;53.016;-2.260;2023-09-12T00:23:35;20.00;99.90
59309;DHT22;48433;53.016;-2.260;2023-09-12T00:28:30;20.00;99.90
59309;DHT22;48433;53.016;-2.260;2023-09-12T00:30:58;20.00;99.90
59309;DHT22;48433;53.016;-2.260;2023-09-12T00:33:26;20.00;99.90
59309;DHT22;48433;53.016;-2.260;2023-09-12T00:38:23;20.00;99.90
59309;DHT22;48433;53.016;-2.260;2023-09-12T00:40:50;20.00;99.90
59309;DHT22;48433;53.016;-2.260;2023-09-12T00:43:18;19.90;99.90
59309;DHT22;48433;53.016;-2.260;2023-09-12T00:45:45;20.00;99.90
59309;DHT22;48433;53.016;-2.260;2023-09-12T00:48:13;20.00;99.90
59309;DHT22;48433;53.016;-2.260;2023-09-12T00:50:43;20.00;99.90
59309;DHT22;48433;53.016;-2.260;2023-09-12T00:53:12;20.00;99.90
59309;DHT22;48433;53.016;-2.260;2023-09-12T00:55:45;19.90;99.90
59309;DHT22;48433;53.016;-2.260;2023-09-12T00:58:14;19.90;99.90
59309;DHT22;48433;53.016;-2.260;2023-09-12T01:00:42;19.90;99.90
59309;DHT22;48433;53.016;-2.260;2023-09-12T01:03:10;19.90;99.90
59309;DHT22;48433;53.016;-2.260;2023-09-12T01:05:39;19.90;99.90
59309;DHT22;48433;53.016;-2.260;2023-09-12T01:08:08;19.90;99.90
59309;DHT22;48433;53.016;-2.260;2023-09-12T01:10:36;19.80;99.90
59309;DHT22;48433;53.016;-2.260;2023-09-12T01:13:04;19.80;99.90
59309;DHT22;48433;53.016;-2.260;2023-09-12T01:15:32;19.70;99.90
59309;DHT22;48433;53.016;-2.260;2023-09-12T01:18:00;19.70;99.90
59309;DHT22;48433;53.016;-2.260;2023-09-12T01:20:34;19.60;99.90
59309;DHT22;48433;53.016;-2.260;2023-09-12T01:28:24;19.40;99.90
59309;DHT22;48433;53.016;-2.260;2023-09-12T01:30:55;19.30;99.90
59309;DHT22;48433;53.016;-2.260;2023-09-12T01:33:22;19.30;99.90
59309;DHT22;48433;53.016;-2.260;2023-09-12T01:38:18;19.00;99.90
59309;DHT22;48433;53.016;-2.260;2023-09-12T01:40:49;18.90;99.90
59309;DHT22;48433;53.016;-2.260;2023-09-12T01:43:18;18.90;99.90
59309;DHT22;48433;53.016;-2.260;2023-09-12T01:45:50;18.80;99.90
59309;DHT22;48433;53.016;-2.260;2023-09-12T01:48:22;18.80;99.90
59309;DHT22;48433;53.016;-2.260;2023-09-12T01:50:51;18.80;99.90
59309;DHT22;48433;53.016;-2.260;2023-09-12T01:55:47;18.80;99.90
59309;DHT22;48433;53.016;-2.260;2023-09-12T01:58:15;18.70;99.90
59309;DHT22;48433;53.016;-2.260;2023-09-12T02:00:43;18.70;99.90
59309;DHT22;48433;53.016;-2.260;2023-09-12T02:03:11;18.70;99.90
59309;DHT22;48433;53.016;-2.260;2023-09-12T02:05:39;18.70;99.90
59309;DHT22;48433;53.016;-2.260;2023-09-12T02:08:07;18.70;99.90
59309;DHT22;48433;53.016;-2.260;2023-09-12T02:10:35;18.60;99.90
59309;DHT22;48433;53.016;-2.260;2023-09-12T02:13:03;18.60;99.90
59309;DHT22;48433;53.016;-2.260;2023-09-12T02:15:31;18.50;99.90
59309;DHT22;48433;53.016;-2.260;2023-09-12T02:17:58;18.40;99.90
59309;DHT22;48433;53.016;-2.260;2023-09-12T02:20:26;18.40;99.90
59309;DHT22;48433;53.016;-2.260;2023-09-12T02:22:54;18.30;99.90
59309;DHT22;48433;53.016;-2.260;2023-09-12T02:25:21;18.20;99.90
59309;DHT22;48433;53.016;-2.260;2023-09-12T02:27:49;18.30;99.90
59309;DHT22;48433;53.016;-2.260;2023-09-12T02:30:16;18.30;99.90
59309;DHT22;48433;53.016;-2.260;2023-09-12T02:32:44;18.20;99.90
59309;DHT22;48433;53.016;-2.260;2023-09-12T02:35:12;18.30;99.90
59309;DHT22;48433;53.016;-2.260;2023-09-12T02:37:39;18.30;99.90
59309;DHT22;48433;53.016;-2.260;2023-09-12T02:40:07;18.20;99.90
59309;DHT22;48433;53.016;-2.260;2023-09-12T02:42:38;18.20;99.90
59309;DHT22;48433;53.016;-2.260;2023-09-12T02:45:06;18.20;99.90
59309;DHT22;48433;53.016;-2.260;2023-09-12T02:47:34;18.30;99.90
59309;DHT22;48433;53.016;-2.260;2023-09-12T02:50:02;18.30;99.90
59309;DHT22;48433;53.016;-2.260;2023-09-12T02:52:30;18.30;99.90
59309;DHT22;48433;53.016;-2.260;2023-09-12T02:54:58;18.20;99.90
59309;DHT22;48433;53.016;-2.260;2023-09-12T02:57:25;18.20;99.90
59309;DHT22;48433;53.016;-2.260;2023-09-12T03:02:21;18.10;99.90
59309;DHT22;48433;53.016;-2.260;2023-09-12T03:04:49;18.20;99.90
59309;DHT22;48433;53.016;-2.260;2023-09-12T03:07:17;18.20;99.90
59309;DHT22;48433;53.016;-2.260;2023-09-12T03:09:48;18.20;99.90
59309;DHT22;48433;53.016;-2.260;2023-09-12T03:14:44;18.10;99.90
59309;DHT22;48433;53.016;-2.260;2023-09-12T03:17:11;18.20;99.90
59309;DHT22;48433;53.016;-2.260;2023-09-12T03:19:39;18.20;99.90
59309;DHT22;48433;53.016;-2.260;2023-09-12T03:22:07;18.30;99.90
59309;DHT22;48433;53.016;-2.260;2023-09-12T03:24:34;18.30;99.90
59309;DHT22;48433;53.016;-2.260;2023-09-12T03:27:06;18.40;99.90
59309;DHT22;48433;53.016;-2.260;2023-09-12T03:29:35;18.40;99.90
59309;DHT22;48433;53.016;-2.260;2023-09-12T03:32:02;18.30;99.90
59309;DHT22;48433;53.016;-2.260;2023-09-12T03:34:31;18.40;99.90
59309;DHT22;48433;53.016;-2.260;2023-09-12T03:36:59;18.40;99.90
59309;DHT22;48433;53.016;-2.260;2023-09-12T03:39:26;18.40;99.90
59309;DHT22;48433;53.016;-2.260;2023-09-12T03:41:54;18.30;99.90
59309;DHT22;48433;53.016;-2.260;2023-09-12T03:46:50;18.30;99.90
59309;DHT22;48433;53.016;-2.260;2023-09-12T03:49:18;18.40;99.90
59309;DHT22;48433;53.016;-2.260;2023-09-12T03:51:45;18.40;99.90
59309;DHT22;48433;53.016;-2.260;2023-09-12T03:54:13;18.30;99.90
59309;DHT22;48433;53.016;-2.260;2023-09-12T03:56:41;18.40;99.90
59309;DHT22;48433;53.016;-2.260;2023-09-12T03:59:13;18.40;99.90
59309;DHT22;48433;53.016;-2.260;2023-09-12T04:04:09;18.40;99.90
59309;DHT22;48433;53.016;-2.260;2023-09-12T04:06:37;18.40;99.90
59309;DHT22;48433;53.016;-2.260;2023-09-12T04:09:05;18.30;99.90
59309;DHT22;48433;53.016;-2.260;2023-09-12T04:11:32;18.40;99.90
59309;DHT22;48433;53.016;-2.260;2023-09-12T04:14:14;18.30;99.90
59309;DHT22;48433;53.016;-2.260;2023-09-12T04:16:41;18.30;99.90
59309;DHT22;48433;53.016;-2.260;2023-09-12T04:19:09;18.20;99.90
59309;DHT22;48433;53.016;-2.260;2023-09-12T04:21:38;18.20;99.90
59309;DHT22;48433;53.016;-2.260;2023-09-12T04:24:06;18.20;99.90
59309;DHT22;48433;53.016;-2.260;2023-09-12T04:26:34;18.20;99.90
59309;DHT22;48433;53.016;-2.260;2023-09-12T04:29:02;18.20;99.90
59309;DHT22;48433;53.016;-2.260;2023-09-12T04:31:30;18.20;99.90
59309;DHT22;48433;53.016;-2.260;2023-09-12T04:33:58;18.20;99.90
59309;DHT22;48433;53.016;-2.260;2023-09-12T04:36:25;18.10;99.90
59309;DHT22;48433;53.016;-2.260;2023-09-12T04:38:53;18.10;99.90
59309;DHT22;48433;53.016;-2.260;2023-09-12T04:41:20;18.10;99.90
59309;DHT22;48433;53.016;-2.260;2023-09-12T04:43:48;18.10;99.90
59309;DHT22;48433;53.016;-2.260;2023-09-12T04:46:16;18.00;99.90
59309;DHT22;48433;53.016;-2.260;2023-09-12T04:48:43;18.00;99.90
59309;DHT22;48433;53.016;-2.260;2023-09-12T04:51:12;18.00;99.90
59309;DHT22;48433;53.016;-2.260;2023-09-12T04:53:40;18.10;99.90
59309;DHT22;48433;53.016;-2.260;2023-09-12T04:56:07;18.00;99.90
59309;DHT22;48433;53.016;-2.260;2023-09-12T04:58:37;18.10;99.90
59309;DHT22;48433;53.016;-2.260;2023-09-12T05:01:05;18.00;99.90
59309;DHT22;48433;53.016;-2.260;2023-09-12T05:03:32;18.00;99.90
59309;DHT22;48433;53.016;-2.260;2023-09-12T05:06:01;18.10;99.90
59309;DHT22;48433;53.016;-2.260;2023-09-12T05:08:29;18.10;99.90
59309;DHT22;48433;53.016;-2.260;2023-09-12T05:13:25;18.10;99.90
59309;DHT22;48433;53.016;-2.260;2023-09-12T05:15:52;18.20;99.90
59309;DHT22;48433;53.016;-2.260;2023-09-12T05:18:20;18.10;99.90
59309;DHT22;48433;53.016;-2.260;2023-09-12T05:20:49;18.10;99.90
59309;DHT22;48433;53.016;-2.260;2023-09-12T05:23:17;18.10;99.90
59309;DHT22;48433;53.016;-2.260;2023-09-12T05:25:44;18.10;99.90
59309;DHT22;48433;53.016;-2.260;2023-09-12T05:28:12;18.10;99.90
59309;DHT22;48433;53.016;-2.260;2023-09-12T05:30:46;18.10;99.90
59309;DHT22;48433;53.016;-2.260;2023-09-12T05:33:14;18.10;99.90
59309;DHT22;48433;53.016;-2.260;2023-09-12T05:35:42;18.20;99.90
59309;DHT22;48433;53.016;-2.260;2023-09-12T05:38:11;18.20;99.90
59309;DHT22;48433;53.016;-2.260;2023-09-12T05:40:39;18.20;99.90
59309;DHT22;48433;53.016;-2.260;2023-09-12T05:43:07;18.20;99.90
59309;DHT22;48433;53.016;-2.260;2023-09-12T05:45:35;18.30;99.90
59309;DHT22;48433;53.016;-2.260;2023-09-12T05:48:03;18.30;99.90
59309;DHT22;48433;53.016;-2.260;2023-09-12T05:50:33;18.30;99.90
59309;DHT22;48433;53.016;-2.260;2023-09-12T05:53:01;18.20;99.90
59309;DHT22;48433;53.016;-2.260;2023-09-12T05:57:59;18.20;99.90
59309;DHT22;48433;53.016;-2.260;2023-09-12T06:00:27;18.20;99.90
59309;DHT22;48433;53.016;-2.260;2023-09-12T06:02:55;18.20;99.90
59309;DHT22;48433;53.016;-2.260;2023-09-12T06:05:22;18.20;99.90
59309;DHT22;48433;53.016;-2.260;2023-09-12T06:07:50;18.20;99.90
59309;DHT22;48433;53.016;-2.260;2023-09-12T06:10:18;18.30;99.90
59309;DHT22;48433;53.016;-2.260;2023-09-12T06:12:46;18.30;99.90
59309;DHT22;48433;53.016;-2.260;2023-09-12T06:15:13;18.40;99.90
59309;DHT22;48433;53.016;-2.260;2023-09-12T06:17:42;18.40;99.90
59309;DHT22;48433;53.016;-2.260;2023-09-12T06:20:09;18.40;99.90
59309;DHT22;48433;53.016;-2.260;2023-09-12T06:22:37;18.40;99.90
59309;DHT22;48433;53.016;-2.260;2023-09-12T06:25:05;18.40;99.90
59309;DHT22;48433;53.016;-2.260;2023-09-12T06:27:33;18.40;99.90
59309;DHT22;48433;53.016;-2.260;2023-09-12T06:30:01;18.50;99.90
59309;DHT22;48433;53.016;-2.260;2023-09-12T06:32:30;18.50;99.90
59309;DHT22;48433;53.016;-2.260;2023-09-12T06:34:58;18.40;99.90
59309;DHT22;48433;53.016;-2.260;2023-09-12T06:37:25;18.50;99.90
59309;DHT22;48433;53.016;-2.260;2023-09-12T06:39:53;18.50;99.90
59309;DHT22;48433;53.016;-2.260;2023-09-12T06:42:20;18.50;99.90
59309;DHT22;48433;53.016;-2.260;2023-09-12T06:44:48;18.50;99.90
59309;DHT22;48433;53.016;-2.260;2023-09-12T06:47:16;18.50;99.90
59309;DHT22;48433;53.016;-2.260;2023-09-12T06:49:43;18.50;99.90
59309;DHT22;48433;53.016;-2.260;2023-09-12T06:52:17;18.50;99.90
59309;DHT22;48433;53.016;-2.260;2023-09-12T06:54:45;18.50;99.90
59309;DHT22;48433;53.016;-2.260;2023-09-12T06:57:13;18.50;99.90
59309;DHT22;48433;53.016;-2.260;2023-09-12T06:59:41;18.50;99.90
59309;DHT22;48433;53.016;-2.260;2023-09-12T07:02:09;18.50;99.90
59309;DHT22;48433;53.016;-2.260;2023-09-12T07:04:38;18.60;99.90
59309;DHT22;48433;53.016;-2.260;2023-09-12T07:07:06;18.60;99.90
59309;DHT22;48433;53.016;-2.260;2023-09-12T07:09:34;18.60;99.90
59309;DHT22;48433;53.016;-2.260;2023-09-12T07:12:01;18.60;99.90
59309;DHT22;48433;53.016;-2.260;2023-09-12T07:14:29;18.60;99.90
59309;DHT22;48433;53.016;-2.260;2023-09-12T07:16:58;18.60;99.90
59309;DHT22;48433;53.016;-2.260;2023-09-12T07:19:26;18.60;99.90
59309;DHT22;48433;53.016;-2.260;2023-09-12T07:21:53;18.60;99.90
59309;DHT22;48433;53.016;-2.260;2023-09-12T07:24:25;18.70;99.90
59309;DHT22;48433;53.016;-2.260;2023-09-12T07:26:53;18.70;99.90
59309;DHT22;48433;53.016;-2.260;2023-09-12T07:29:21;18.70;99.90
59309;DHT22;48433;53.016;-2.260;2023-09-12T07:31:52;18.70;99.90
59309;DHT22;48433;53.016;-2.260;2023-09-12T07:34:21;18.70;99.90
59309;DHT22;48433;53.016;-2.260;2023-09-12T07:36:49;18.60;99.90
59309;DHT22;48433;53.016;-2.260;2023-09-12T07:39:18;18.50;99.90
59309;DHT22;48433;53.016;-2.260;2023-09-12T07:41:46;18.40;99.90
59309;DHT22;48433;53.016;-2.260;2023-09-12T07:44:14;18.30;99.90
59309;DHT22;48433;53.016;-2.260;2023-09-12T07:46:43;18.10;99.90
59309;DHT22;48433;53.016;-2.260;2023-09-12T07:49:11;18.10;99.90
59309;DHT22;48433;53.016;-2.260;2023-09-12T07:51:39;18.00;99.90
59309;DHT22;48433;53.016;-2.260;2023-09-12T07:54:06;17.90;99.90
59309;DHT22;48433;53.016;-2.260;2023-09-12T07:59:02;18.00;99.90
59309;DHT22;48433;53.016;-2.260;2023-09-12T08:01:29;17.90;99.90
59309;DHT22;48433;53.016;-2.260;2023-09-12T08:03:57;17.90;99.90
59309;DHT22;48433;53.016;-2.260;2023-09-12T08:06:25;17.90;99.90
59309;DHT22;48433;53.016;-2.260;2023-09-12T08:08:53;17.90;99.90
59309;DHT22;48433;53.016;-2.260;2023-09-12T08:11:20;17.80;99.90
59309;DHT22;48433;53.016;-2.260;2023-09-12T08:13:49;17.90;99.90
59309;DHT22;48433;53.016;-2.260;2023-09-12T08:16:17;17.90;99.90
59309;DHT22;48433;53.016;-2.260;2023-09-12T08:18:44;18.00;99.90
59309;DHT22;48433;53.016;-2.260;2023-09-12T08:21:12;18.00;99.90
59309;DHT22;48433;53.016;-2.260;2023-09-12T08:23:40;18.10;99.90
59309;DHT22;48433;53.016;-2.260;2023-09-12T08:26:08;18.10;99.90
59309;DHT22;48433;53.016;-2.260;2023-09-12T08:28:36;18.20;99.90
59309;DHT22;48433;53.016;-2.260;2023-09-12T08:31:04;18.20;99.90
59309;DHT22;48433;53.016;-2.260;2023-09-12T08:33:32;18.30;99.90
59309;DHT22;48433;53.016;-2.260;2023-09-12T08:35:59;18.40;99.90
59309;DHT22;48433;53.016;-2.260;2023-09-12T08:38:27;18.40;99.90
59309;DHT22;48433;53.016;-2.260;2023-09-12T08:40:54;18.40;99.90
59309;DHT22;48433;53.016;-2.260;2023-09-12T08:43:22;18.40;99.90
59309;DHT22;48433;53.016;-2.260;2023-09-12T08:45:50;18.40;99.90
59309;DHT22;48433;53.016;-2.260;2023-09-12T08:48:18;18.30;99.90
59309;DHT22;48433;53.016;-2.260;2023-09-12T08:53:21;18.30;99.90
59309;DHT22;48433;53.016;-2.260;2023-09-12T08:55:51;18.30;99.90
59309;DHT22;48433;53.016;-2.260;2023-09-12T08:58:20;18.30;99.90
59309;DHT22;48433;53.016;-2.260;2023-09-12T09:00:49;18.20;99.90
59309;DHT22;48433;53.016;-2.260;2023-09-12T09:03:19;18.20;99.90
59309;DHT22;48433;53.016;-2.260;2023-09-12T09:05:47;18.20;99.90
59309;DHT22;48433;53.016;-2.260;2023-09-12T09:08:17;18.20;99.90
59309;DHT22;48433;53.016;-2.260;2023-09-12T09:10:59;18.20;99.90
59309;DHT22;48433;53.016;-2.260;2023-09-12T09:13:29;18.20;99.90
59309;DHT22;48433;53.016;-2.260;2023-09-12T09:16:16;18.20;99.90
59309;DHT22;48433;53.016;-2.260;2023-09-12T09:19:02;18.20;99.90
59309;DHT22;48433;53.016;-2.260;2023-09-12T09:21:33;18.30;99.90
59309;DHT22;48433;53.016;-2.260;2023-09-12T09:24:04;18.30;99.90
59309;DHT22;48433;53.016;-2.260;2023-09-12T09:29:16;18.40;99.90
59309;DHT22;48433;53.016;-2.260;2023-09-12T09:31:46;18.50;99.90
59309;DHT22;48433;53.016;-2.260;2023-09-12T09:34:19;18.50;99.90
59309;DHT22;48433;53.016;-2.260;2023-09-12T09:36:50;18.60;99.90
59309;DHT22;48433;53.016;-2.260;2023-09-12T09:39:19;18.70;99.90
59309;DHT22;48433;53.016;-2.260;2023-09-12T09:41:52;18.70;99.90
59309;DHT22;48433;53.016;-2.260;2023-09-12T09:44:21;18.70;99.90
59309;DHT22;48433;53.016;-2.260;2023-09-12T09:49:34;18.70;99.90
59309;DHT22;48433;53.016;-2.260;2023-09-12T09:52:05;18.70;99.90
59309;DHT22;48433;53.016;-2.260;2023-09-12T09:54:33;18.70;99.90
59309;DHT22;48433;53.016;-2.260;2023-09-12T09:57:00;18.70;99.90
59309;DHT22;48433;53.016;-2.260;2023-09-12T09:59:28;18.70;99.90
59309;DHT22;48433;53.016;-2.260;2023-09-12T10:01:58;18.70;99.90
59309;DHT22;48433;53.016;-2.260;2023-09-12T10:04:28;18.70;99.90
59309;DHT22;48433;53.016;-2.260;2023-09-12T10:06:57;18.70;99.90
59309;DHT22;48433;53.016;-2.260;2023-09-12T10:09:27;18.70;99.90
59309;DHT22;48433;53.016;-2.260;2023-09-12T10:11:56;18.70;99.90
59309;DHT22;48433;53.016;-2.260;2023-09-12T10:14:27;18.70;99.90
59309;DHT22;48433;53.016;-2.260;2023-09-12T10:17:01;18.70;99.90
59309;DHT22;48433;53.016;-2.260;2023-09-12T10:19:40;18.70;99.90
59309;DHT22;48433;53.016;-2.260;2023-09-12T10:22:24;18.70;99.90
59309;DHT22;48433;53.016;-2.260;2023-09-12T10:24:53;18.70;99.90
59309;DHT22;48433;53.016;-2.260;2023-09-12T10:27:24;18.70;99.90
59309;DHT22;48433;53.016;-2.260;2023-09-12T10:29:53;18.70;99.90
59309;DHT22;48433;53.016;-2.260;2023-09-12T10:32:21;18.70;99.90
59309;DHT22;48433;53.016;-2.260;2023-09-12T10:34:51;18.70;99.90
59309;DHT22;48433;53.016;-2.260;2023-09-12T10:37:22;18.80;99.90
59309;DHT22;48433;53.016;-2.260;2023-09-12T10:39:51;18.90;99.90
59309;DHT22;48433;53.016;-2.260;2023-09-12T10:42:20;19.10;99.90
59309;DHT22;48433;53.016;-2.260;2023-09-12T10:44:50;19.10;99.90
59309;DHT22;48433;53.016;-2.260;2023-09-12T10:47:19;19.20;99.90
59309;DHT22;48433;53.016;-2.260;2023-09-12T10:49:48;19.30;99.90
59309;DHT22;48433;53.016;-2.260;2023-09-12T10:52:26;19.30;99.90
59309;DHT22;48433;53.016;-2.260;2023-09-12T10:54:54;19.20;99.90
59309;DHT22;48433;53.016;-2.260;2023-09-12T10:57:22;19.20;99.90
59309;DHT22;48433;53.016;-2.260;2023-09-12T11:02:38;19.20;99.90
59309;DHT22;48433;53.016;-2.260;2023-09-12T11:05:34;19.10;99.90
59309;DHT22;48433;53.016;-2.260;2023-09-12T11:08:01;19.10;99.90
59309;DHT22;48433;53.016;-2.260;2023-09-12T11:10:31;19.10;99.90
59309;DHT22;48433;53.016;-2.260;2023-09-12T11:12:59;19.00;99.90
59309;DHT22;48433;53.016;-2.260;2023-09-12T11:15:28;18.90;99.90
59309;DHT22;48433;53.016;-2.260;2023-09-12T11:18:04;18.90;99.90
59309;DHT22;48433;53.016;-2.260;2023-09-12T11:23:25;19.00;99.90
59309;DHT22;48433;53.016;-2.260;2023-09-12T11:26:07;19.00;99.90
59309;DHT22;48433;53.016;-2.260;2023-09-12T11:28:35;19.00;99.90
59309;DHT22;48433;53.016;-2.260;2023-09-12T11:31:02;19.00;99.90
59309;DHT22;48433;53.016;-2.260;2023-09-12T11:33:32;19.00;99.90
59309;DHT22;48433;53.016;-2.260;2023-09-12T11:36:00;19.00;99.90
59309;DHT22;48433;53.016;-2.260;2023-09-12T11:38:31;19.10;99.90
59309;DHT22;48433;53.016;-2.260;2023-09-12T11:40:59;19.20;99.90
59309;DHT22;48433;53.016;-2.260;2023-09-12T11:43:28;19.20;99.90
59309;DHT22;48433;53.016;-2.260;2023-09-12T11:45:57;19.30;99.90
59309;DHT22;48433;53.016;-2.260;2023-09-12T11:48:25;19.40;99.90
59309;DHT22;48433;53.016;-2.260;2023-09-12T11:50:54;19.40;99.90
59309;DHT22;48433;53.016;-2.260;2023-09-12T11:53:25;19.40;99.90
59309;DHT22;48433;53.016;-2.260;2023-09-12T11:55:56;19.40;99.90
59309;DHT22;48433;53.016;-2.260;2023-09-12T11:58:25;19.50;99.90
59309;DHT22;48433;53.016;-2.260;2023-09-12T12:00:56;19.60;99.90
59309;DHT22;48433;53.016;-2.260;2023-09-12T12:03:26;19.60;99.90
59309;DHT22;48433;53.016;-2.260;2023-09-12T12:05:55;19.70;99.90
59309;DHT22;48433;53.016;-2.260;2023-09-12T12:08:23;19.70;99.90
59309;DHT22;48433;53.016;-2.260;2023-09-12T12:10:54;19.70;99.90
59309;DHT22;48433;53.016;-2.260;2023-09-12T12:13:22;19.70;99.90
59309;DHT22;48433;53.016;-2.260;2023-09-12T12:16:17;19.70;99.90
59309;DHT22;48433;53.016;-2.260;2023-09-12T12:18:45;19.70;99.90
59309;DHT22;48433;53.016;-2.260;2023-09-12T12:23:41;19.60;99.90
59309;DHT22;48433;53.016;-2.260;2023-09-12T12:26:09;19.60;99.90
59309;DHT22;48433;53.016;-2.260;2023-09-12T12:28:37;19.60;99.90
59309;DHT22;48433;53.016;-2.260;2023-09-12T12:31:05;19.60;99.90
59309;DHT22;48433;53.016;-2.260;2023-09-12T12:33:33;19.60;99.90
59309;DHT22;48433;53.016;-2.260;2023-09-12T12:36:20;19.60;99.90
59309;DHT22;48433;53.016;-2.260;2023-09-12T12:38:49;19.60;99.90
59309;DHT22;48433;53.016;-2.260;2023-09-12T12:41:24;19.50;99.90
59309;DHT22;48433;53.016;-2.260;2023-09-12T12:43:57;19.60;99.90
59309;DHT22;48433;53.016;-2.260;2023-09-12T12:48:58;19.40;99.90
59309;DHT22;48433;53.016;-2.260;2023-09-12T12:51:26;19.40;99.90
59309;DHT22;48433;53.016;-2.260;2023-09-12T12:53:55;19.40;99.90
59309;DHT22;48433;53.016;-2.260;2023-09-12T12:56:27;19.40;99.90
59309;DHT22;48433;53.016;-2.260;2023-09-12T12:58:59;19.40;99.90
59309;DHT22;48433;53.016;-2.260;2023-09-12T13:01:30;19.40;99.90
59309;DHT22;48433;53.016;-2.260;2023-09-12T13:03:58;19.40;99.90
59309;DHT22;48433;53.016;-2.260;2023-09-12T13:06:26;19.50;99.90
59309;DHT22;48433;53.016;-2.260;2023-09-12T13:08:58;19.50;99.90
59309;DHT22;48433;53.016;-2.260;2023-09-12T13:11:28;19.60;99.90
59309;DHT22;48433;53.016;-2.260;2023-09-12T13:13:56;19.50;99.90
59309;DHT22;48433;53.016;-2.260;2023-09-12T13:16:24;19.50;99.90
59309;DHT22;48433;53.016;-2.260;2023-09-12T13:18:51;19.40;99.90
59309;DHT22;48433;53.016;-2.260;2023-09-12T13:21:19;19.40;99.90
59309;DHT22;48433;53.016;-2.260;2023-09-12T13:23:47;19.40;99.90
59309;DHT22;48433;53.016;-2.260;2023-09-12T13:26:15;19.40;99.90
59309;DHT22;48433;53.016;-2.260;2023-09-12T13:28:43;19.40;99.90
59309;DHT22;48433;53.016;-2.260;2023-09-12T13:31:10;19.40;99.90
59309;DHT22;48433;53.016;-2.260;2023-09-12T13:33:39;19.40;99.90
59309;DHT22;48433;53.016;-2.260;2023-09-12T13:36:07;19.40;99.90
59309;DHT22;48433;53.016;-2.260;2023-09-12T13:38:35;19.40;99.90
59309;DHT22;48433;53.016;-2.260;2023-09-12T13:41:02;19.40;99.90
59309;DHT22;48433;53.016;-2.260;2023-09-12T13:43:30;19.30;99.90
59309;DHT22;48433;53.016;-2.260;2023-09-12T13:45:58;19.30;99.90
59309;DHT22;48433;53.016;-2.260;2023-09-12T13:48:26;19.20;99.90
59309;DHT22;48433;53.016;-2.260;2023-09-12T13:50:54;19.20;99.90
59309;DHT22;48433;53.016;-2.260;2023-09-12T13:53:21;19.30;99.90
59309;DHT22;48433;53.016;-2.260;2023-09-12T13:55:49;19.20;99.90
59309;DHT22;48433;53.016;-2.260;2023-09-12T13:58:17;19.30;99.90
59309;DHT22;48433;53.016;-2.260;2023-09-12T14:00:45;19.30;99.90
59309;DHT22;48433;53.016;-2.260;2023-09-12T14:03:13;19.30;99.90
59309;DHT22;48433;53.016;-2.260;2023-09-12T14:05:41;19.30;99.90
59309;DHT22;48433;53.016;-2.260;2023-09-12T14:08:09;19.30;99.90
59309;DHT22;48433;53.016;-2.260;2023-09-12T14:10:37;19.30;99.90
59309;DHT22;48433;53.016;-2.260;2023-09-12T14:13:07;19.30;99.90
59309;DHT22;48433;53.016;-2.260;2023-09-12T14:15:38;19.20;99.90
59309;DHT22;48433;53.016;-2.260;2023-09-12T14:18:06;19.10;99.90
59309;DHT22;48433;53.016;-2.260;2023-09-12T14:20:35;19.00;99.90
59309;DHT22;48433;53.016;-2.260;2023-09-12T14:23:03;18.90;99.90
59309;DHT22;48433;53.016;-2.260;2023-09-12T14:25:31;18.90;99.90
59309;DHT22;48433;53.016;-2.260;2023-09-12T14:27:59;18.70;99.90
59309;DHT22;48433;53.016;-2.260;2023-09-12T14:30:27;18.60;99.90
59309;DHT22;48433;53.016;-2.260;2023-09-12T14:33:03;18.70;99.90
59309;DHT22;48433;53.016;-2.260;2023-09-12T14:35:31;18.70;99.90
59309;DHT22;48433;53.016;-2.260;2023-09-12T14:37:58;18.80;99.90
59309;DHT22;48433;53.016;-2.260;2023-09-12T14:40:27;18.90;99.90
59309;DHT22;48433;53.016;-2.260;2023-09-12T14:42:55;19.00;99.90
59309;DHT22;48433;53.016;-2.260;2023-09-12T14:45:22;19.10;99.90
59309;DHT22;48433;53.016;-2.260;2023-09-12T14:47:53;19.10;99.90
59309;DHT22;48433;53.016;-2.260;2023-09-12T14:50:23;19.30;99.90
59309;DHT22;48433;53.016;-2.260;2023-09-12T14:53:06;19.40;99.90
59309;DHT22;48433;53.016;-2.260;2023-09-12T14:55:34;19.50;99.90
59309;DHT22;48433;53.016;-2.260;2023-09-12T14:58:01;19.60;99.90
59309;DHT22;48433;53.016;-2.260;2023-09-12T15:00:29;19.60;99.90
59309;DHT22;48433;53.016;-2.260;2023-09-12T15:02:58;19.60;99.90
59309;DHT22;48433;53.016;-2.260;2023-09-12T15:05:25;19.60;99.90
59309;DHT22;48433;53.016;-2.260;2023-09-12T15:07:53;19.60;99.90
59309;DHT22;48433;53.016;-2.260;2023-09-12T15:10:21;19.60;99.90
59309;DHT22;48433;53.016;-2.260;2023-09-12T15:15:17;19.50;99.90
59309;DHT22;48433;53.016;-2.260;2023-09-12T15:17:45;19.50;99.90
59309;DHT22;48433;53.016;-2.260;2023-09-12T15:20:12;19.30;99.90
59309;DHT22;48433;53.016;-2.260;2023-09-12T15:22:40;19.30;99.90
59309;DHT22;48433;53.016;-2.260;2023-09-12T15:25:10;19.20;99.90
59309;DHT22;48433;53.016;-2.260;2023-09-12T15:27:38;19.20;99.90
59309;DHT22;48433;53.016;-2.260;2023-09-12T15:30:06;19.10;99.90
59309;DHT22;48433;53.016;-2.260;2023-09-12T15:32:34;19.10;99.90
59309;DHT22;48433;53.016;-2.260;2023-09-12T15:35:02;19.10;99.90
59309;DHT22;48433;53.016;-2.260;2023-09-12T15:37:30;19.10;99.90
59309;DHT22;48433;53.016;-2.260;2023-09-12T15:39:58;19.10;99.90
59309;DHT22;48433;53.016;-2.260;2023-09-12T15:42:26;19.10;99.90
59309;DHT22;48433;53.016;-2.260;2023-09-12T15:45:05;19.10;99.90
59309;DHT22;48433;53.016;-2.260;2023-09-12T15:47:36;19.10;99.90
59309;DHT22;48433;53.016;-2.260;2023-09-12T15:50:05;19.10;99.90
59309;DHT22;48433;53.016;-2.260;2023-09-12T15:52:33;19.10;99.90
59309;DHT22;48433;53.016;-2.260;2023-09-12T15:55:09;19.10;99.90
59309;DHT22;48433;53.016;-2.260;2023-09-12T15:57:37;19.10;99.90
59309;DHT22;48433;53.016;-2.260;2023-09-12T16:00:09;19.10;99.90
59309;DHT22;48433;53.016;-2.260;2023-09-12T16:02:41;19.20;99.90
59309;DHT22;48433;53.016;-2.260;2023-09-12T16:05:10;19.20;99.90
59309;DHT22;48433;53.016;-2.260;2023-09-12T16:07:38;19.20;99.90
59309;DHT22;48433;53.016;-2.260;2023-09-12T16:10:06;19.30;99.90
59309;DHT22;48433;53.016;-2.260;2023-09-12T16:12:35;19.30;99.90
59309;DHT22;48433;53.016;-2.260;2023-09-12T16:15:03;19.30;99.90
59309;DHT22;48433;53.016;-2.260;2023-09-12T16:17:31;19.30;99.90
59309;DHT22;48433;53.016;-2.260;2023-09-12T16:19:59;19.20;99.90